sensor_id;sensor_type;location;lat;lon;timestamp;P1;durP1;ratioP1;P2;durP2;ratioP2
22679;SDS011;11507;44.858;10.374;2023-04-10T00:03:48;7.40;;;3.60;;
22679;SDS011;11507;44.858;10.374;2023-04-10T00:08:39;5.95;;;3.47;;
22679;SDS011;11507;44.858;10.374;2023-04-10T00:11:05;5.90;;;3.42;;
22679;SDS011;11507;44.858;10.374;2023-04-10T00:15:57;6.07;;;3.50;;
22679;SDS011;11507;44.858;10.374;2023-04-10T00:20:49;5.32;;;3.40;;
22679;SDS011;11507;44.858;10.374;2023-04-10T00:23:15;7.32;;;4.40;;
22679;SDS011;11507;44.858;10.374;2023-04-10T00:28:11;6.82;;;4.10;;
22679;SDS011;11507;44.858;10.374;2023-04-10T00:30:37;6.45;;;3.58;;
22679;SDS011;11507;44.858;10.374;2023-04-10T00:35:29;6.93;;;4.00;;
22679;SDS011;11507;44.858;10.374;2023-04-10T00:40:21;6.82;;;4.15;;
22679;SDS011;11507;44.858;10.374;2023-04-10T00:42:48;7.22;;;4.20;;
22679;SDS011;11507;44.858;10.374;2023-04-10T00:45:14;6.97;;;4.10;;
22679;SDS011;11507;44.858;10.374;2023-04-10T00:47:44;7.38;;;3.70;;
22679;SDS011;11507;44.858;10.374;2023-04-10T00:52:40;6.50;;;3.80;;
22679;SDS011;11507;44.858;10.374;2023-04-10T00:57:32;6.47;;;3.92;;
22679;SDS011;11507;44.858;10.374;2023-04-10T01:00:03;6.75;;;3.92;;
22679;SDS011;11507;44.858;10.374;2023-04-10T01:02:30;6.97;;;4.00;;
22679;SDS011;11507;44.858;10.374;2023-04-10T01:07:30;6.80;;;3.92;;
22679;SDS011;11507;44.858;10.374;2023-04-10T01:18:38;7.57;;;3.80;;
22679;SDS011;11507;44.858;10.374;2023-04-10T01:21:10;6.47;;;4.00;;
22679;SDS011;11507;44.858;10.374;2023-04-10T01:23:48;7.47;;;3.88;;
22679;SDS011;11507;44.858;10.374;2023-04-10T01:29:22;5.53;;;3.63;;
22679;SDS011;11507;44.858;10.374;2023-04-10T01:31:53;6.82;;;3.95;;
22679;SDS011;11507;44.858;10.374;2023-04-10T01:34:34;6.55;;;4.00;;
22679;SDS011;11507;44.858;10.374;2023-04-10T01:37:29;6.47;;;3.95;;
22679;SDS011;11507;44.858;10.374;2023-04-10T01:40:00;6.00;;;3.80;;
22679;SDS011;11507;44.858;10.374;2023-04-10T01:42:38;6.32;;;3.97;;
22679;SDS011;11507;44.858;10.374;2023-04-10T01:45:07;6.78;;;3.78;;
22679;SDS011;11507;44.858;10.374;2023-04-10T01:47:36;6.70;;;3.85;;
22679;SDS011;11507;44.858;10.374;2023-04-10T01:50:03;6.88;;;4.43;;
22679;SDS011;11507;44.858;10.374;2023-04-10T01:52:30;6.43;;;4.38;;
22679;SDS011;11507;44.858;10.374;2023-04-10T01:57:43;7.13;;;4.30;;
22679;SDS011;11507;44.858;10.374;2023-04-10T02:00:11;7.03;;;4.22;;
22679;SDS011;11507;44.858;10.374;2023-04-10T02:02:43;7.97;;;4.57;;
22679;SDS011;11507;44.858;10.374;2023-04-10T02:10:24;7.47;;;4.65;;
22679;SDS011;11507;44.858;10.374;2023-04-10T02:12:59;9.07;;;5.25;;
22679;SDS011;11507;44.858;10.374;2023-04-10T02:15:30;8.48;;;4.85;;
22679;SDS011;11507;44.858;10.374;2023-04-10T02:17:58;6.85;;;4.55;;
22679;SDS011;11507;44.858;10.374;2023-04-10T02:20:29;6.38;;;4.63;;
22679;SDS011;11507;44.858;10.374;2023-04-10T02:23:04;7.38;;;4.43;;
22679;SDS011;11507;44.858;10.374;2023-04-10T02:25:34;7.72;;;4.35;;
22679;SDS011;11507;44.858;10.374;2023-04-10T02:28:03;6.63;;;4.53;;
22679;SDS011;11507;44.858;10.374;2023-04-10T02:30:30;6.88;;;4.35;;
22679;SDS011;11507;44.858;10.374;2023-04-10T02:33:02;6.75;;;4.47;;
22679;SDS011;11507;44.858;10.374;2023-04-10T02:35:29;7.07;;;4.38;;
22679;SDS011;11507;44.858;10.374;2023-04-10T02:40:21;8.20;;;5.25;;
22679;SDS011;11507;44.858;10.374;2023-04-10T02:43:05;7.80;;;5.15;;
22679;SDS011;11507;44.858;10.374;2023-04-10T02:45:32;9.20;;;5.53;;
22679;SDS011;11507;44.858;10.374;2023-04-10T02:50:26;7.38;;;4.63;;
22679;SDS011;11507;44.858;10.374;2023-04-10T02:52:55;7.78;;;4.63;;
22679;SDS011;11507;44.858;10.374;2023-04-10T02:55:21;7.70;;;5.10;;
22679;SDS011;11507;44.858;10.374;2023-04-10T03:00:13;8.90;;;5.40;;
22679;SDS011;11507;44.858;10.374;2023-04-10T03:03:08;9.00;;;5.57;;
22679;SDS011;11507;44.858;10.374;2023-04-10T03:05:45;9.32;;;5.40;;
22679;SDS011;11507;44.858;10.374;2023-04-10T03:08:15;8.95;;;5.57;;
22679;SDS011;11507;44.858;10.374;2023-04-10T03:10:46;8.63;;;5.57;;
22679;SDS011;11507;44.858;10.374;2023-04-10T03:13:13;11.00;;;5.30;;
22679;SDS011;11507;44.858;10.374;2023-04-10T03:15:40;8.77;;;5.30;;
22679;SDS011;11507;44.858;10.374;2023-04-10T03:23:06;8.57;;;5.32;;
22679;SDS011;11507;44.858;10.374;2023-04-10T03:25:33;9.35;;;5.63;;
22679;SDS011;11507;44.858;10.374;2023-04-10T03:28:01;8.00;;;5.32;;
22679;SDS011;11507;44.858;10.374;2023-04-10T03:30:28;9.43;;;5.38;;
22679;SDS011;11507;44.858;10.374;2023-04-10T03:35:20;10.32;;;5.95;;
22679;SDS011;11507;44.858;10.374;2023-04-10T03:37:47;8.98;;;5.43;;
22679;SDS011;11507;44.858;10.374;2023-04-10T03:42:39;9.65;;;5.15;;
22679;SDS011;11507;44.858;10.374;2023-04-10T03:45:05;13.05;;;5.55;;
22679;SDS011;11507;44.858;10.374;2023-04-10T03:47:32;9.30;;;5.68;;
22679;SDS011;11507;44.858;10.374;2023-04-10T03:50:01;9.23;;;5.18;;
22679;SDS011;11507;44.858;10.374;2023-04-10T03:52:34;8.40;;;5.30;;
22679;SDS011;11507;44.858;10.374;2023-04-10T03:57:27;7.83;;;5.03;;
22679;SDS011;11507;44.858;10.374;2023-04-10T03:59:59;8.73;;;5.38;;
22679;SDS011;11507;44.858;10.374;2023-04-10T04:02:39;8.77;;;5.25;;
22679;SDS011;11507;44.858;10.374;2023-04-10T04:05:06;10.93;;;5.93;;
22679;SDS011;11507;44.858;10.374;2023-04-10T04:07:46;9.32;;;5.50;;
22679;SDS011;11507;44.858;10.374;2023-04-10T04:10:27;10.32;;;5.47;;
22679;SDS011;11507;44.858;10.374;2023-04-10T04:13:14;9.35;;;5.97;;
22679;SDS011;11507;44.858;10.374;2023-04-10T04:15:58;10.18;;;5.72;;
22679;SDS011;11507;44.858;10.374;2023-04-10T04:18:37;10.57;;;6.28;;
22679;SDS011;11507;44.858;10.374;2023-04-10T04:21:16;9.88;;;5.55;;
22679;SDS011;11507;44.858;10.374;2023-04-10T04:23:59;10.52;;;5.55;;
22679;SDS011;11507;44.858;10.374;2023-04-10T04:26:44;10.27;;;5.53;;
22679;SDS011;11507;44.858;10.374;2023-04-10T04:29:32;12.32;;;5.35;;
22679;SDS011;11507;44.858;10.374;2023-04-10T04:32:13;8.52;;;5.50;;
22679;SDS011;11507;44.858;10.374;2023-04-10T04:34:59;10.38;;;5.47;;
22679;SDS011;11507;44.858;10.374;2023-04-10T04:37:54;9.27;;;5.78;;
22679;SDS011;11507;44.858;10.374;2023-04-10T04:40:39;10.93;;;5.53;;
22679;SDS011;11507;44.858;10.374;2023-04-10T04:43:38;8.57;;;5.75;;
22679;SDS011;11507;44.858;10.374;2023-04-10T04:46:31;9.38;;;5.68;;
22679;SDS011;11507;44.858;10.374;2023-04-10T04:49:28;10.65;;;5.95;;
22679;SDS011;11507;44.858;10.374;2023-04-10T04:52:32;11.43;;;6.43;;
22679;SDS011;11507;44.858;10.374;2023-04-10T04:55:10;10.80;;;6.43;;
22679;SDS011;11507;44.858;10.374;2023-04-10T04:57:52;9.80;;;6.10;;
22679;SDS011;11507;44.858;10.374;2023-04-10T05:00:27;10.50;;;5.90;;
22679;SDS011;11507;44.858;10.374;2023-04-10T05:03:07;10.07;;;6.30;;
22679;SDS011;11507;44.858;10.374;2023-04-10T05:05:51;12.27;;;6.07;;
22679;SDS011;11507;44.858;10.374;2023-04-10T05:08:46;9.85;;;6.43;;
22679;SDS011;11507;44.858;10.374;2023-04-10T05:11:47;9.90;;;5.97;;
22679;SDS011;11507;44.858;10.374;2023-04-10T05:14:53;10.32;;;6.20;;
22679;SDS011;11507;44.858;10.374;2023-04-10T05:17:45;11.20;;;6.55;;
22679;SDS011;11507;44.858;10.374;2023-04-10T05:20:35;11.55;;;6.80;;
22679;SDS011;11507;44.858;10.374;2023-04-10T05:23:09;11.50;;;6.38;;
22679;SDS011;11507;44.858;10.374;2023-04-10T05:28:47;12.88;;;7.45;;
22679;SDS011;11507;44.858;10.374;2023-04-10T05:31:35;10.77;;;6.22;;
22679;SDS011;11507;44.858;10.374;2023-04-10T05:34:27;11.10;;;6.97;;
22679;SDS011;11507;44.858;10.374;2023-04-10T05:37:27;12.30;;;6.93;;
22679;SDS011;11507;44.858;10.374;2023-04-10T05:40:01;10.45;;;6.60;;
22679;SDS011;11507;44.858;10.374;2023-04-10T05:42:49;12.00;;;7.00;;
22679;SDS011;11507;44.858;10.374;2023-04-10T05:45:44;10.88;;;7.00;;
22679;SDS011;11507;44.858;10.374;2023-04-10T05:48:38;10.20;;;6.50;;
22679;SDS011;11507;44.858;10.374;2023-04-10T05:51:23;12.68;;;6.68;;
22679;SDS011;11507;44.858;10.374;2023-04-10T05:54:09;10.93;;;6.78;;
22679;SDS011;11507;44.858;10.374;2023-04-10T05:57:05;12.45;;;6.72;;
22679;SDS011;11507;44.858;10.374;2023-04-10T06:02:03;10.48;;;7.03;;
22679;SDS011;11507;44.858;10.374;2023-04-10T06:04:30;13.75;;;7.40;;
22679;SDS011;11507;44.858;10.374;2023-04-10T06:06:59;11.95;;;7.40;;
22679;SDS011;11507;44.858;10.374;2023-04-10T06:09:25;13.18;;;7.43;;
22679;SDS011;11507;44.858;10.374;2023-04-10T06:11:52;14.00;;;7.60;;
22679;SDS011;11507;44.858;10.374;2023-04-10T06:14:21;12.27;;;7.45;;
22679;SDS011;11507;44.858;10.374;2023-04-10T06:16:47;12.40;;;7.53;;
22679;SDS011;11507;44.858;10.374;2023-04-10T06:19:15;13.20;;;7.63;;
22679;SDS011;11507;44.858;10.374;2023-04-10T06:21:41;12.80;;;7.60;;
22679;SDS011;11507;44.858;10.374;2023-04-10T06:26:34;12.25;;;7.18;;
22679;SDS011;11507;44.858;10.374;2023-04-10T06:29:05;11.57;;;6.72;;
22679;SDS011;11507;44.858;10.374;2023-04-10T06:31:33;12.13;;;6.85;;
22679;SDS011;11507;44.858;10.374;2023-04-10T06:36:25;9.60;;;6.87;;
22679;SDS011;11507;44.858;10.374;2023-04-10T06:38:58;14.38;;;6.82;;
22679;SDS011;11507;44.858;10.374;2023-04-10T06:41:26;10.73;;;7.28;;
22679;SDS011;11507;44.858;10.374;2023-04-10T06:43:54;9.45;;;6.38;;
22679;SDS011;11507;44.858;10.374;2023-04-10T06:48:48;10.27;;;6.10;;
22679;SDS011;11507;44.858;10.374;2023-04-10T06:53:40;9.65;;;5.53;;
22679;SDS011;11507;44.858;10.374;2023-04-10T06:56:06;10.00;;;5.57;;
22679;SDS011;11507;44.858;10.374;2023-04-10T06:58:33;9.55;;;5.57;;
22679;SDS011;11507;44.858;10.374;2023-04-10T07:03:29;7.57;;;5.28;;
22679;SDS011;11507;44.858;10.374;2023-04-10T07:05:57;8.02;;;5.00;;
22679;SDS011;11507;44.858;10.374;2023-04-10T07:08:24;8.07;;;5.50;;
22679;SDS011;11507;44.858;10.374;2023-04-10T07:10:59;8.38;;;4.93;;
22679;SDS011;11507;44.858;10.374;2023-04-10T07:13:25;8.30;;;5.13;;
22679;SDS011;11507;44.858;10.374;2023-04-10T07:18:18;7.80;;;5.10;;
22679;SDS011;11507;44.858;10.374;2023-04-10T07:23:12;9.90;;;5.22;;
22679;SDS011;11507;44.858;10.374;2023-04-10T07:25:40;8.10;;;5.30;;
22679;SDS011;11507;44.858;10.374;2023-04-10T07:28:06;8.02;;;4.97;;
22679;SDS011;11507;44.858;10.374;2023-04-10T07:30:33;7.60;;;5.00;;
22679;SDS011;11507;44.858;10.374;2023-04-10T07:35:24;7.40;;;4.53;;
22679;SDS011;11507;44.858;10.374;2023-04-10T07:37:51;9.02;;;4.57;;
22679;SDS011;11507;44.858;10.374;2023-04-10T07:40:18;7.18;;;4.30;;
22679;SDS011;11507;44.858;10.374;2023-04-10T07:42:45;8.45;;;4.60;;
22679;SDS011;11507;44.858;10.374;2023-04-10T07:45:13;7.15;;;4.68;;
22679;SDS011;11507;44.858;10.374;2023-04-10T07:47:39;8.35;;;4.18;;
22679;SDS011;11507;44.858;10.374;2023-04-10T07:52:33;6.45;;;3.83;;
22679;SDS011;11507;44.858;10.374;2023-04-10T07:55:03;6.20;;;4.18;;
22679;SDS011;11507;44.858;10.374;2023-04-10T07:57:31;5.18;;;3.15;;
22679;SDS011;11507;44.858;10.374;2023-04-10T07:59:57;5.25;;;3.28;;
22679;SDS011;11507;44.858;10.374;2023-04-10T08:02:24;4.95;;;3.08;;
22679;SDS011;11507;44.858;10.374;2023-04-10T08:07:18;7.18;;;3.00;;
22679;SDS011;11507;44.858;10.374;2023-04-10T08:09:48;5.43;;;3.03;;
22679;SDS011;11507;44.858;10.374;2023-04-10T08:12:17;7.03;;;3.45;;
22679;SDS011;11507;44.858;10.374;2023-04-10T08:14:45;5.95;;;3.28;;
22679;SDS011;11507;44.858;10.374;2023-04-10T08:17:17;5.47;;;3.08;;
22679;SDS011;11507;44.858;10.374;2023-04-10T08:19:49;6.65;;;2.72;;
22679;SDS011;11507;44.858;10.374;2023-04-10T08:22:16;5.32;;;3.00;;
22679;SDS011;11507;44.858;10.374;2023-04-10T08:24:42;6.20;;;2.72;;
22679;SDS011;11507;44.858;10.374;2023-04-10T08:27:11;7.07;;;3.00;;
22679;SDS011;11507;44.858;10.374;2023-04-10T08:29:41;5.88;;;3.10;;
22679;SDS011;11507;44.858;10.374;2023-04-10T08:32:08;4.40;;;3.15;;
22679;SDS011;11507;44.858;10.374;2023-04-10T08:34:37;4.63;;;2.80;;
22679;SDS011;11507;44.858;10.374;2023-04-10T08:37:07;4.68;;;3.10;;
22679;SDS011;11507;44.858;10.374;2023-04-10T08:39:37;4.50;;;2.90;;
22679;SDS011;11507;44.858;10.374;2023-04-10T08:42:04;6.95;;;3.17;;
22679;SDS011;11507;44.858;10.374;2023-04-10T08:44:31;5.00;;;2.90;;
22679;SDS011;11507;44.858;10.374;2023-04-10T08:46:59;5.38;;;3.30;;
22679;SDS011;11507;44.858;10.374;2023-04-10T08:52:19;5.97;;;3.40;;
22679;SDS011;11507;44.858;10.374;2023-04-10T08:54:57;6.32;;;3.40;;
22679;SDS011;11507;44.858;10.374;2023-04-10T08:57:26;5.32;;;3.15;;
22679;SDS011;11507;44.858;10.374;2023-04-10T08:59:54;4.80;;;3.10;;
22679;SDS011;11507;44.858;10.374;2023-04-10T09:02:22;5.22;;;3.00;;
22679;SDS011;11507;44.858;10.374;2023-04-10T09:04:51;5.45;;;3.10;;
22679;SDS011;11507;44.858;10.374;2023-04-10T09:07:21;4.72;;;2.90;;
22679;SDS011;11507;44.858;10.374;2023-04-10T09:09:47;5.55;;;2.80;;
22679;SDS011;11507;44.858;10.374;2023-04-10T09:12:14;5.63;;;2.83;;
22679;SDS011;11507;44.858;10.374;2023-04-10T09:14:41;5.78;;;2.70;;
22679;SDS011;11507;44.858;10.374;2023-04-10T09:17:29;4.50;;;2.80;;
22679;SDS011;11507;44.858;10.374;2023-04-10T09:19:56;5.78;;;3.20;;
22679;SDS011;11507;44.858;10.374;2023-04-10T09:22:29;5.38;;;2.90;;
22679;SDS011;11507;44.858;10.374;2023-04-10T09:25:00;4.78;;;2.90;;
22679;SDS011;11507;44.858;10.374;2023-04-10T09:27:29;4.57;;;3.08;;
22679;SDS011;11507;44.858;10.374;2023-04-10T09:35:12;4.80;;;2.65;;
22679;SDS011;11507;44.858;10.374;2023-04-10T09:37:40;4.22;;;2.80;;
22679;SDS011;11507;44.858;10.374;2023-04-10T09:40:21;5.90;;;2.80;;
22679;SDS011;11507;44.858;10.374;2023-04-10T09:42:49;4.72;;;2.45;;
22679;SDS011;11507;44.858;10.374;2023-04-10T09:45:16;6.32;;;3.10;;
22679;SDS011;11507;44.858;10.374;2023-04-10T09:48:05;4.88;;;2.78;;
22679;SDS011;11507;44.858;10.374;2023-04-10T09:50:39;4.55;;;2.72;;
22679;SDS011;11507;44.858;10.374;2023-04-10T09:53:07;4.90;;;3.03;;
22679;SDS011;11507;44.858;10.374;2023-04-10T09:55:34;4.50;;;2.75;;
22679;SDS011;11507;44.858;10.374;2023-04-10T09:58:02;4.22;;;2.53;;
22679;SDS011;11507;44.858;10.374;2023-04-10T10:00:31;4.32;;;2.80;;
22679;SDS011;11507;44.858;10.374;2023-04-10T10:03:01;3.63;;;2.40;;
22679;SDS011;11507;44.858;10.374;2023-04-10T10:05:31;4.38;;;2.47;;
22679;SDS011;11507;44.858;10.374;2023-04-10T10:10:29;4.70;;;2.65;;
22679;SDS011;11507;44.858;10.374;2023-04-10T10:13:01;4.40;;;2.97;;
22679;SDS011;11507;44.858;10.374;2023-04-10T10:15:40;6.10;;;3.45;;
22679;SDS011;11507;44.858;10.374;2023-04-10T10:21:15;4.78;;;2.83;;
22679;SDS011;11507;44.858;10.374;2023-04-10T10:26:29;4.78;;;2.88;;
22679;SDS011;11507;44.858;10.374;2023-04-10T10:29:04;4.80;;;3.08;;
22679;SDS011;11507;44.858;10.374;2023-04-10T10:31:35;4.28;;;2.80;;
22679;SDS011;11507;44.858;10.374;2023-04-10T10:34:02;5.57;;;3.13;;
22679;SDS011;11507;44.858;10.374;2023-04-10T10:36:32;4.57;;;3.03;;
22679;SDS011;11507;44.858;10.374;2023-04-10T10:45:20;5.18;;;3.15;;
22679;SDS011;11507;44.858;10.374;2023-04-10T10:48:09;5.95;;;2.80;;
22679;SDS011;11507;44.858;10.374;2023-04-10T10:50:56;5.47;;;3.00;;
22679;SDS011;11507;44.858;10.374;2023-04-10T10:56:32;5.03;;;3.13;;
22679;SDS011;11507;44.858;10.374;2023-04-10T10:58:57;8.77;;;5.55;;
22679;SDS011;11507;44.858;10.374;2023-04-10T11:01:23;6.15;;;3.45;;
22679;SDS011;11507;44.858;10.374;2023-04-10T11:03:50;4.80;;;3.15;;
22679;SDS011;11507;44.858;10.374;2023-04-10T11:06:16;5.88;;;3.28;;
22679;SDS011;11507;44.858;10.374;2023-04-10T11:08:50;5.72;;;3.20;;
22679;SDS011;11507;44.858;10.374;2023-04-10T11:11:20;5.50;;;2.90;;
22679;SDS011;11507;44.858;10.374;2023-04-10T11:16:21;4.15;;;3.00;;
22679;SDS011;11507;44.858;10.374;2023-04-10T11:19:09;4.75;;;3.15;;
22679;SDS011;11507;44.858;10.374;2023-04-10T11:24:50;6.85;;;3.22;;
22679;SDS011;11507;44.858;10.374;2023-04-10T11:30:29;4.22;;;2.90;;
22679;SDS011;11507;44.858;10.374;2023-04-10T11:32:57;4.45;;;3.05;;
22679;SDS011;11507;44.858;10.374;2023-04-10T11:35:27;6.07;;;3.38;;
22679;SDS011;11507;44.858;10.374;2023-04-10T11:38:08;5.97;;;3.40;;
22679;SDS011;11507;44.858;10.374;2023-04-10T11:40:55;4.82;;;3.30;;
22679;SDS011;11507;44.858;10.374;2023-04-10T11:43:26;5.63;;;3.25;;
22679;SDS011;11507;44.858;10.374;2023-04-10T11:46:02;4.70;;;3.35;;
22679;SDS011;11507;44.858;10.374;2023-04-10T11:48:31;5.00;;;3.72;;
22679;SDS011;11507;44.858;10.374;2023-04-10T11:51:04;5.03;;;3.60;;
22679;SDS011;11507;44.858;10.374;2023-04-10T11:53:32;5.43;;;3.30;;
22679;SDS011;11507;44.858;10.374;2023-04-10T11:56:14;6.47;;;3.40;;
22679;SDS011;11507;44.858;10.374;2023-04-10T11:59:05;6.07;;;3.67;;
22679;SDS011;11507;44.858;10.374;2023-04-10T12:01:37;5.03;;;3.40;;
22679;SDS011;11507;44.858;10.374;2023-04-10T12:04:09;4.15;;;3.00;;
22679;SDS011;11507;44.858;10.374;2023-04-10T12:06:44;5.43;;;3.28;;
22679;SDS011;11507;44.858;10.374;2023-04-10T12:09:16;4.68;;;3.17;;
22679;SDS011;11507;44.858;10.374;2023-04-10T12:12:00;4.70;;;3.25;;
22679;SDS011;11507;44.858;10.374;2023-04-10T12:17:05;5.75;;;3.55;;
22679;SDS011;11507;44.858;10.374;2023-04-10T12:19:33;4.78;;;3.10;;
22679;SDS011;11507;44.858;10.374;2023-04-10T12:22:01;5.05;;;3.38;;
22679;SDS011;11507;44.858;10.374;2023-04-10T12:27:22;4.85;;;3.22;;
22679;SDS011;11507;44.858;10.374;2023-04-10T12:32:25;4.35;;;2.92;;
22679;SDS011;11507;44.858;10.374;2023-04-10T12:34:56;6.65;;;3.08;;
22679;SDS011;11507;44.858;10.374;2023-04-10T12:37:46;5.30;;;3.25;;
22679;SDS011;11507;44.858;10.374;2023-04-10T12:40:15;4.97;;;3.20;;
22679;SDS011;11507;44.858;10.374;2023-04-10T12:42:49;5.57;;;3.20;;
22679;SDS011;11507;44.858;10.374;2023-04-10T12:45:21;5.82;;;3.55;;
22679;SDS011;11507;44.858;10.374;2023-04-10T12:48:10;5.10;;;3.15;;
22679;SDS011;11507;44.858;10.374;2023-04-10T12:50:45;4.82;;;3.28;;
22679;SDS011;11507;44.858;10.374;2023-04-10T12:53:12;5.13;;;3.17;;
22679;SDS011;11507;44.858;10.374;2023-04-10T12:55:40;5.30;;;3.55;;
22679;SDS011;11507;44.858;10.374;2023-04-10T12:58:35;4.53;;;3.33;;
22679;SDS011;11507;44.858;10.374;2023-04-10T13:01:03;5.45;;;3.40;;
22679;SDS011;11507;44.858;10.374;2023-04-10T13:03:34;4.95;;;3.10;;
22679;SDS011;11507;44.858;10.374;2023-04-10T13:06:02;4.22;;;2.97;;
22679;SDS011;11507;44.858;10.374;2023-04-10T13:08:31;4.28;;;2.92;;
22679;SDS011;11507;44.858;10.374;2023-04-10T13:10:58;4.03;;;2.92;;
22679;SDS011;11507;44.858;10.374;2023-04-10T13:13:28;6.38;;;3.30;;
22679;SDS011;11507;44.858;10.374;2023-04-10T13:15:57;4.22;;;2.90;;
22679;SDS011;11507;44.858;10.374;2023-04-10T13:18:25;5.65;;;3.28;;
22679;SDS011;11507;44.858;10.374;2023-04-10T13:20:54;4.50;;;3.22;;
22679;SDS011;11507;44.858;10.374;2023-04-10T13:23:20;5.05;;;3.03;;
22679;SDS011;11507;44.858;10.374;2023-04-10T13:25:46;7.95;;;4.07;;
22679;SDS011;11507;44.858;10.374;2023-04-10T13:28:13;4.22;;;3.05;;
22679;SDS011;11507;44.858;10.374;2023-04-10T13:30:40;5.78;;;3.10;;
22679;SDS011;11507;44.858;10.374;2023-04-10T13:33:06;4.22;;;2.97;;
22679;SDS011;11507;44.858;10.374;2023-04-10T13:35:33;4.97;;;2.95;;
22679;SDS011;11507;44.858;10.374;2023-04-10T13:37:59;5.75;;;3.40;;
22679;SDS011;11507;44.858;10.374;2023-04-10T13:40:25;5.00;;;3.03;;
22679;SDS011;11507;44.858;10.374;2023-04-10T13:42:53;3.97;;;2.80;;
22679;SDS011;11507;44.858;10.374;2023-04-10T13:45:19;4.13;;;2.92;;
22679;SDS011;11507;44.858;10.374;2023-04-10T13:47:45;4.38;;;2.90;;
22679;SDS011;11507;44.858;10.374;2023-04-10T13:50:12;4.15;;;2.95;;
22679;SDS011;11507;44.858;10.374;2023-04-10T13:52:46;4.57;;;2.90;;
22679;SDS011;11507;44.858;10.374;2023-04-10T13:55:12;3.90;;;2.60;;
22679;SDS011;11507;44.858;10.374;2023-04-10T13:57:38;5.18;;;3.08;;
22679;SDS011;11507;44.858;10.374;2023-04-10T14:00:06;4.78;;;3.17;;
22679;SDS011;11507;44.858;10.374;2023-04-10T14:02:40;3.75;;;2.90;;
22679;SDS011;11507;44.858;10.374;2023-04-10T14:05:06;4.25;;;3.00;;
22679;SDS011;11507;44.858;10.374;2023-04-10T14:07:33;4.07;;;3.00;;
22679;SDS011;11507;44.858;10.374;2023-04-10T14:09:59;5.60;;;3.05;;
22679;SDS011;11507;44.858;10.374;2023-04-10T14:12:26;5.20;;;3.03;;
22679;SDS011;11507;44.858;10.374;2023-04-10T14:14:52;3.85;;;2.78;;
22679;SDS011;11507;44.858;10.374;2023-04-10T14:17:18;4.00;;;2.70;;
22679;SDS011;11507;44.858;10.374;2023-04-10T14:19:44;4.00;;;2.60;;
22679;SDS011;11507;44.858;10.374;2023-04-10T14:22:12;6.07;;;2.67;;
22679;SDS011;11507;44.858;10.374;2023-04-10T14:24:39;4.22;;;2.70;;
22679;SDS011;11507;44.858;10.374;2023-04-10T14:27:08;4.20;;;2.30;;
22679;SDS011;11507;44.858;10.374;2023-04-10T14:29:34;4.13;;;2.40;;
22679;SDS011;11507;44.858;10.374;2023-04-10T14:32:01;4.25;;;2.58;;
22679;SDS011;11507;44.858;10.374;2023-04-10T14:34:27;3.63;;;2.50;;
22679;SDS011;11507;44.858;10.374;2023-04-10T14:36:54;6.05;;;2.70;;
22679;SDS011;11507;44.858;10.374;2023-04-10T14:39:22;4.78;;;2.90;;
22679;SDS011;11507;44.858;10.374;2023-04-10T14:41:50;4.75;;;2.75;;
22679;SDS011;11507;44.858;10.374;2023-04-10T14:44:22;3.25;;;2.28;;
22679;SDS011;11507;44.858;10.374;2023-04-10T14:46:49;3.25;;;2.40;;
22679;SDS011;11507;44.858;10.374;2023-04-10T14:49:18;3.85;;;2.80;;
22679;SDS011;11507;44.858;10.374;2023-04-10T14:51:52;3.47;;;2.45;;
22679;SDS011;11507;44.858;10.374;2023-04-10T14:54:18;5.07;;;2.35;;
22679;SDS011;11507;44.858;10.374;2023-04-10T14:56:51;3.58;;;2.20;;
22679;SDS011;11507;44.858;10.374;2023-04-10T14:59:17;4.13;;;2.65;;
22679;SDS011;11507;44.858;10.374;2023-04-10T15:01:43;4.65;;;2.05;;
22679;SDS011;11507;44.858;10.374;2023-04-10T15:04:19;3.78;;;2.20;;
22679;SDS011;11507;44.858;10.374;2023-04-10T15:06:49;4.55;;;2.50;;
22679;SDS011;11507;44.858;10.374;2023-04-10T15:09:16;3.88;;;2.45;;
22679;SDS011;11507;44.858;10.374;2023-04-10T15:11:45;3.58;;;2.30;;
22679;SDS011;11507;44.858;10.374;2023-04-10T15:14:11;5.57;;;2.40;;
22679;SDS011;11507;44.858;10.374;2023-04-10T15:16:44;4.63;;;2.63;;
22679;SDS011;11507;44.858;10.374;2023-04-10T15:19:41;4.43;;;2.60;;
22679;SDS011;11507;44.858;10.374;2023-04-10T15:25:01;3.47;;;2.28;;
22679;SDS011;11507;44.858;10.374;2023-04-10T15:27:31;3.40;;;2.30;;
22679;SDS011;11507;44.858;10.374;2023-04-10T15:29:57;4.45;;;2.47;;
22679;SDS011;11507;44.858;10.374;2023-04-10T15:32:23;3.75;;;2.35;;
22679;SDS011;11507;44.858;10.374;2023-04-10T15:34:52;4.57;;;2.45;;
22679;SDS011;11507;44.858;10.374;2023-04-10T15:37:19;3.50;;;2.13;;
22679;SDS011;11507;44.858;10.374;2023-04-10T15:39:45;3.55;;;2.45;;
22679;SDS011;11507;44.858;10.374;2023-04-10T15:42:12;3.50;;;2.33;;
22679;SDS011;11507;44.858;10.374;2023-04-10T15:44:40;4.30;;;2.47;;
22679;SDS011;11507;44.858;10.374;2023-04-10T15:47:06;4.00;;;2.35;;
22679;SDS011;11507;44.858;10.374;2023-04-10T15:49:32;3.53;;;2.17;;
22679;SDS011;11507;44.858;10.374;2023-04-10T15:51:58;3.15;;;2.13;;
22679;SDS011;11507;44.858;10.374;2023-04-10T15:54:25;4.10;;;1.95;;
22679;SDS011;11507;44.858;10.374;2023-04-10T15:56:51;3.42;;;1.95;;
22679;SDS011;11507;44.858;10.374;2023-04-10T15:59:18;3.35;;;2.00;;
22679;SDS011;11507;44.858;10.374;2023-04-10T16:01:45;3.25;;;1.65;;
22679;SDS011;11507;44.858;10.374;2023-04-10T16:04:11;3.08;;;1.75;;
22679;SDS011;11507;44.858;10.374;2023-04-10T16:06:37;3.42;;;2.00;;
22679;SDS011;11507;44.858;10.374;2023-04-10T16:09:04;3.90;;;2.10;;
22679;SDS011;11507;44.858;10.374;2023-04-10T16:11:32;2.63;;;1.70;;
22679;SDS011;11507;44.858;10.374;2023-04-10T16:13:59;3.50;;;1.85;;
22679;SDS011;11507;44.858;10.374;2023-04-10T16:19:20;4.90;;;1.60;;
22679;SDS011;11507;44.858;10.374;2023-04-10T16:21:46;3.95;;;2.20;;
22679;SDS011;11507;44.858;10.374;2023-04-10T16:24:14;3.60;;;2.00;;
22679;SDS011;11507;44.858;10.374;2023-04-10T16:26:43;3.42;;;1.85;;
22679;SDS011;11507;44.858;10.374;2023-04-10T16:29:09;3.38;;;2.08;;
22679;SDS011;11507;44.858;10.374;2023-04-10T16:31:35;2.90;;;1.70;;
22679;SDS011;11507;44.858;10.374;2023-04-10T16:34:01;3.40;;;1.80;;
22679;SDS011;11507;44.858;10.374;2023-04-10T16:36:27;4.80;;;1.90;;
22679;SDS011;11507;44.858;10.374;2023-04-10T16:38:53;2.95;;;1.70;;
22679;SDS011;11507;44.858;10.374;2023-04-10T16:41:19;3.67;;;1.80;;
22679;SDS011;11507;44.858;10.374;2023-04-10T16:43:47;3.13;;;1.63;;
22679;SDS011;11507;44.858;10.374;2023-04-10T16:46:13;3.88;;;1.85;;
22679;SDS011;11507;44.858;10.374;2023-04-10T16:48:41;3.33;;;1.70;;
22679;SDS011;11507;44.858;10.374;2023-04-10T16:51:21;3.42;;;2.10;;
22679;SDS011;11507;44.858;10.374;2023-04-10T16:53:48;6.45;;;1.92;;
22679;SDS011;11507;44.858;10.374;2023-04-10T16:56:21;3.15;;;1.98;;
22679;SDS011;11507;44.858;10.374;2023-04-10T16:58:51;3.35;;;1.73;;
22679;SDS011;11507;44.858;10.374;2023-04-10T17:01:18;3.65;;;2.10;;
22679;SDS011;11507;44.858;10.374;2023-04-10T17:03:46;3.65;;;2.08;;
22679;SDS011;11507;44.858;10.374;2023-04-10T17:06:13;3.58;;;1.83;;
22679;SDS011;11507;44.858;10.374;2023-04-10T17:08:41;5.32;;;2.00;;
22679;SDS011;11507;44.858;10.374;2023-04-10T17:11:08;3.40;;;1.95;;
22679;SDS011;11507;44.858;10.374;2023-04-10T17:13:38;4.88;;;2.60;;
22679;SDS011;11507;44.858;10.374;2023-04-10T17:16:06;4.75;;;2.55;;
22679;SDS011;11507;44.858;10.374;2023-04-10T17:18:33;3.40;;;2.30;;
22679;SDS011;11507;44.858;10.374;2023-04-10T17:21:01;4.05;;;2.40;;